Aviation Digital Data Service (ADDS)

Output produced by METARs form (1940 UTC 25 March 2017)
found at http://www.aviationweather.gov/adds/metars/
 
SMJP 251900Z 35009KT 9999 SCT035 32/22 Q1009 NOSIG
TAF SMJP 251600Z 2518/2618 07010KT 9999 FEW015TCU SCT030 TX32/2518Z TN23/2610Z 
     FM252200 04005KT CAVOK 
     PROB30 2609/2611 00000KT 3000 BR FEW003 
     BECMG 2611/2612 09008KT FEW015